Time;durP1;ratioP1;P1;durP2;ratioP2;P2;SDS_P1;SDS_P2;PMS_P1;PMS_P2;Temp;Humidity;BMP_temperature;BMP_pressure;BME280_temperature;BME280_humidity;BME280_pressure;Samples;Min_cycle;Max_cycle;Signal;HPM_P1;HPM_P2
2022/03/22 00:01:31;;;;;;;64.07;40.63;;;5.50;2.20;;;;;;6095259;23;20037;-83
2022/03/22 00:04:02;;;;;;;63.55;40.00;;;5.40;2.00;;;;;;6094616;23;20066;-82
2022/03/22 00:06:29;;;;;;;62.78;40.22;;;5.40;2.50;;;;;;6095171;23;20014;-83
2022/03/22 00:08:54;;;;;;;59.85;38.35;;;5.40;2.40;;;;;;6094688;23;20286;-84
2022/03/22 00:11:20;;;;;;;56.90;38.42;;;5.40;3.20;;;;;;6095421;23;20104;-84
2022/03/22 00:13:46;;;;;;;71.68;42.05;;;5.60;2.50;;;;;;6068881;23;20093;-83
2022/03/22 00:16:13;;;;;;;68.38;41.17;;;5.30;4.10;;;;;;6095693;23;20014;-83
2022/03/22 00:18:39;;;;;;;68.05;42.55;;;5.30;4.40;;;;;;6094212;23;20097;-83
2022/03/22 00:21:06;;;;;;;65.03;41.58;;;5.30;4.20;;;;;;6093306;23;20085;-83
2022/03/22 00:23:33;;;;;;;69.47;42.47;;;5.20;4.90;;;;;;6094293;23;20026;-89
2022/03/22 00:25:58;;;;;;;61.28;41.42;;;5.30;5.00;;;;;;6095099;23;20022;-83
2022/03/22 00:28:24;;;;;;;66.45;42.05;;;5.30;6.60;;;;;;6095610;23;20054;-83
2022/03/22 00:30:50;;;;;;;73.10;44.97;;;5.30;6.40;;;;;;6095095;23;20345;-83
2022/03/22 00:33:16;;;;;;;81.45;46.40;;;5.30;6.30;;;;;;6094431;23;20022;-83
2022/03/22 00:35:42;;;;;;;72.68;44.30;;;5.40;24.80;;;;;;6092234;23;20489;-83
2022/03/22 00:38:11;;;;;;;77.50;44.65;;;5.40;27.70;;;;;;6095448;23;20105;-82
2022/03/22 00:40:38;;;;;;;71.10;44.33;;;5.40;30.80;;;;;;6092790;23;20018;-83
2022/03/22 00:43:05;;;;;;;78.38;43.97;;;5.40;24.60;;;;;;6064883;23;20154;-83
2022/03/22 00:45:32;;;;;;;70.82;43.40;;;5.40;24.90;;;;;;6066363;23;20025;-83
2022/03/22 00:47:59;;;;;;;74.13;43.92;;;5.40;21.00;;;;;;6065506;23;20026;-83
2022/03/22 00:50:30;;;;;;;75.28;46.28;;;5.40;29.50;;;;;;6064768;23;20015;-86
2022/03/22 00:52:58;;;;;;;74.40;46.25;;;5.50;40.60;;;;;;6063559;23;20019;-83
2022/03/22 00:55:26;;;;;;;72.95;45.92;;;5.50;49.70;;;;;;6065909;23;20026;-84
2022/03/22 00:57:53;;;;;;;77.13;47.65;;;5.60;44.80;;;;;;6064250;23;20015;-83
2022/03/22 01:00:20;;;;;;;75.50;46.47;;;5.50;44.20;;;;;;6040619;23;20454;-85
2022/03/22 01:02:51;;;;;;;70.85;43.78;;;5.50;36.50;;;;;;6065689;23;20343;-83
2022/03/22 01:05:21;;;;;;;68.28;44.13;;;5.40;30.80;;;;;;6064110;23;20026;-83
2022/03/22 01:07:48;;;;;;;75.38;45.63;;;4.60;25.50;;;;;;6065587;23;20019;-84
2022/03/22 01:10:16;;;;;;;66.85;45.25;;;5.40;27.50;;;;;;6064224;23;20027;-82
2022/03/22 01:12:44;;;;;;;74.57;46.17;;;5.40;25.80;;;;;;6065832;23;20058;-83
2022/03/22 01:15:15;;;;;;;74.30;45.67;;;5.40;29.40;;;;;;6065324;23;20026;-83
2022/03/22 01:17:46;;;;;;;72.90;43.20;;;5.20;28.10;;;;;;6064593;23;20357;-84
2022/03/22 01:20:12;;;;;;;69.68;44.72;;;5.30;30.10;;;;;;6065307;23;20011;-83
2022/03/22 01:22:44;;;;;;;70.03;45.65;;;5.30;26.80;;;;;;6065364;23;20025;-88
2022/03/22 01:25:16;;;;;;;72.03;44.95;;;5.30;24.40;;;;;;6064059;23;20027;-83
2022/03/22 01:27:46;;;;;;;68.70;44.13;;;5.30;23.30;;;;;;6064921;23;20029;-83
2022/03/22 01:30:13;;;;;;;68.30;44.00;;;5.30;22.50;;;;;;6065815;23;20019;-83
2022/03/22 01:32:39;;;;;;;66.90;42.83;;;5.20;21.70;;;;;;6087496;23;20074;-90
2022/03/22 01:35:09;;;;;;;70.90;44.47;;;5.20;21.10;;;;;;6064784;23;20093;-83
2022/03/22 01:37:35;;;;;;;73.70;44.72;;;5.20;21.00;;;;;;6065297;23;20092;-84
2022/03/22 01:40:01;;;;;;;72.57;43.33;;;5.10;20.70;;;;;;6065120;23;20101;-83
2022/03/22 01:42:27;;;;;;;68.78;42.55;;;5.10;21.10;;;;;;6062820;23;20059;-83
2022/03/22 01:44:53;;;;;;;71.15;43.80;;;7.10;21.70;;;;;;6064850;23;20221;-84
2022/03/22 01:47:23;;;;;;;69.20;44.78;;;5.00;21.20;;;;;;6065101;23;20030;-84
2022/03/22 01:49:50;;;;;;;74.75;46.45;;;5.00;33.50;;;;;;6064432;23;20468;-83
2022/03/22 01:52:21;;;;;;;80.45;45.42;;;5.00;34.90;;;;;;6065374;23;20086;-83
2022/03/22 01:54:50;;;;;;;68.60;43.28;;;4.90;26.60;;;;;;6065204;23;20023;-83
2022/03/22 01:57:20;;;;;;;72.78;42.97;;;5.00;27.90;;;;;;6063638;23;20015;-84
2022/03/22 01:59:46;;;;;;;70.80;44.30;;;4.90;24.10;;;;;;6064681;23;20015;-83
2022/03/22 02:07:45;;;;;;;72.38;46.47;;;4.60;23.30;;;;;;6065028;23;20038;-91
2022/03/22 02:10:11;;;;;;;70.80;44.50;;;4.80;24.70;;;;;;6065179;23;20327;-84
2022/03/22 02:12:38;;;;;;;66.70;44.17;;;4.90;24.60;;;;;;6065743;23;20027;-83
2022/03/22 02:15:05;;;;;;;69.43;44.97;;;4.80;24.00;;;;;;6065028;23;20026;-85
2022/03/22 02:17:31;;;;;;;75.15;42.88;;;4.80;24.30;;;;;;6064814;23;20050;-83
2022/03/22 02:19:58;;;;;;;71.03;44.70;;;4.80;23.70;;;;;;6063548;23;20038;-84
2022/03/22 02:22:43;;;;;;;73.22;45.38;;;4.80;25.00;;;;;;6065338;23;20093;-83
2022/03/22 02:25:15;;;;;;;72.07;43.42;;;4.80;25.20;;;;;;6063140;23;20018;-84
2022/03/22 02:27:44;;;;;;;70.28;44.03;;;4.70;26.00;;;;;;6065328;23;20014;-84
2022/03/22 02:30:11;;;;;;;75.65;44.05;;;4.70;25.30;;;;;;6064467;23;20101;-84
2022/03/22 02:32:37;;;;;;;76.78;45.38;;;4.70;25.80;;;;;;6064981;23;20026;-84
2022/03/22 02:35:04;;;;;;;70.80;43.00;;;4.70;25.80;;;;;;6063048;23;20490;-85
2022/03/22 02:37:30;;;;;;;73.28;42.90;;;4.70;26.10;;;;;;6064361;23;20126;-84
2022/03/22 02:39:56;;;;;;;66.93;42.28;;;4.70;27.00;;;;;;6064537;23;20018;-83
2022/03/22 02:42:22;;;;;;;69.72;42.22;;;4.70;27.50;;;;;;6062968;23;20033;-83
2022/03/22 02:44:48;;;;;;;64.50;41.67;;;4.70;28.40;;;;;;6062731;23;20110;-84
2022/03/22 02:47:13;;;;;;;79.10;46.67;;;4.60;27.30;;;;;;6065132;23;20383;-86
2022/03/22 02:49:39;;;;;;;72.40;45.53;;;4.70;66.10;;;;;;6064617;23;20431;-83
2022/03/22 02:52:06;;;;;;;77.82;45.92;;;4.70;59.00;;;;;;6062956;23;20025;-83
2022/03/22 02:54:31;;;;;;;81.53;48.45;;;4.60;50.30;;;;;;6065202;23;20027;-83
2022/03/22 02:56:57;;;;;;;77.10;47.97;;;4.20;87.40;;;;;;6062485;23;20027;-84
2022/03/22 02:59:23;;;;;;;77.65;49.40;;;4.70;87.00;;;;;;6064733;23;20030;-82
2022/03/22 03:01:49;;;;;;;77.10;47.78;;;4.80;86.60;;;;;;6065057;23;20024;-91
2022/03/22 03:04:15;;;;;;;77.28;47.92;;;5.60;84.30;;;;;;6038550;23;20345;-83
2022/03/22 03:06:40;;;;;;;82.68;48.13;;;4.70;83.90;;;;;;6065689;23;20023;-83
2022/03/22 03:09:06;;;;;;;79.18;47.85;;;4.70;82.60;;;;;;6062769;23;20319;-88
2022/03/22 03:11:32;;;;;;;76.75;47.15;;;4.70;76.40;;;;;;6065413;23;20380;-84
2022/03/22 03:16:42;;;;;;;80.80;47.63;;;4.60;69.40;;;;;;6064852;23;20050;-83
2022/03/22 03:19:08;;;;;;;75.32;47.15;;;;;;;;;;6065416;23;20018;-87
2022/03/22 03:21:34;;;;;;;77.07;47.35;;;4.70;72.40;;;;;;6067049;23;20022;-84
2022/03/22 03:24:00;;;;;;;76.68;46.40;;;4.70;79.60;;;;;;6066116;23;20026;-83
2022/03/22 03:26:26;;;;;;;79.47;49.75;;;4.60;78.60;;;;;;6066931;23;20034;-83
2022/03/22 03:28:52;;;;;;;87.95;51.60;;;4.80;98.50;;;;;;6066531;23;20019;-83
2022/03/22 03:31:18;;;;;;;80.03;48.03;;;4.80;96.90;;;;;;6065081;23;20086;-83
2022/03/22 03:33:46;;;;;;;77.35;47.00;;;4.80;95.40;;;;;;6088476;23;20027;-86
2022/03/22 03:36:12;;;;;;;73.15;46.15;;;4.80;90.10;;;;;;6063937;23;20287;-85
2022/03/22 03:38:41;;;;;;;77.30;46.75;;;4.60;86.60;;;;;;6066814;23;20131;-83
2022/03/22 03:43:56;;;;;;;75.78;45.70;;;4.60;75.40;;;;;;6094772;23;20028;-83
2022/03/22 03:49:07;;;;;;;88.47;50.08;;;4.80;86.10;;;;;;6093725;23;20026;-84
2022/03/22 03:51:34;;;;;;;84.43;49.83;;;4.60;84.60;;;;;;6094795;23;20101;-83
2022/03/22 03:54:00;;;;;;;83.55;50.17;;;4.70;93.00;;;;;;6094614;23;20282;-82
2022/03/22 03:56:26;;;;;;;78.22;48.42;;;4.70;93.00;;;;;;6095618;23;20029;-86
2022/03/22 03:58:51;;;;;;;78.72;49.75;;;4.70;92.80;;;;;;6070212;23;20014;-84
2022/03/22 04:01:17;;;;;;;83.25;50.65;;;4.80;94.80;;;;;;6095472;23;20015;-84
2022/03/22 04:03:47;;;;;;;78.50;49.38;;;4.80;97.90;;;;;;6095777;23;20462;-84
2022/03/22 04:06:13;;;;;;;82.28;49.22;;;4.80;95.40;;;;;;6094919;23;20056;-83
2022/03/22 04:08:39;;;;;;;88.13;50.05;;;4.80;94.50;;;;;;6095813;23;20049;-83
2022/03/22 04:11:05;;;;;;;79.78;48.67;;;4.70;90.50;;;;;;6095690;23;20029;-83
2022/03/22 04:13:31;;;;;;;73.57;45.72;;;4.80;90.30;;;;;;6095781;23;20019;-83
2022/03/22 04:15:56;;;;;;;78.95;47.78;;;4.80;90.80;;;;;;6094307;23;20014;-83
2022/03/22 04:18:22;;;;;;;82.55;50.35;;;4.80;90.70;;;;;;6068968;23;20386;-83
2022/03/22 04:20:49;;;;;;;77.03;46.38;;;4.80;92.90;;;;;;6095067;23;20018;-85
2022/03/22 04:23:15;;;;;;;75.17;47.70;;;4.80;92.40;;;;;;6069525;23;20010;-84
2022/03/22 04:25:41;;;;;;;71.28;44.95;;;4.80;91.20;;;;;;6070591;23;20294;-83
2022/03/22 04:33:36;;;;;;;69.05;43.35;;;4.80;73.30;;;;;;6094514;23;20022;-84
2022/03/22 04:36:02;;;;;;;72.15;43.60;;;4.80;79.30;;;;;;6066617;23;20019;-84
2022/03/22 04:38:28;;;;;;;66.35;42.85;;;4.80;74.70;;;;;;6069405;23;20011;-83
2022/03/22 04:40:54;;;;;;;61.80;41.00;;;4.70;72.20;;;;;;6094401;23;20236;-83
2022/03/22 04:43:19;;;;;;;64.80;42.60;;;4.50;68.10;;;;;;6094564;23;20015;-83
2022/03/22 04:45:45;;;;;;;63.72;40.22;;;4.60;67.20;;;;;;6094509;23;20014;-84
2022/03/22 04:48:11;;;;;;;65.13;41.33;;;4.40;63.30;;;;;;6068033;23;20072;-84
2022/03/22 04:50:37;;;;;;;64.93;40.80;;;4.50;64.00;;;;;;6092320;23;20049;-84
2022/03/22 04:58:33;;;;;;;63.33;40.72;;;4.40;61.90;;;;;;6094880;23;20080;-84
2022/03/22 05:00:59;;;;;;;64.05;40.58;;;4.30;61.90;;;;;;6093934;23;20074;-83
2022/03/22 05:03:24;;;;;;;61.60;40.33;;;4.30;61.60;;;;;;6093865;23;20022;-83
2022/03/22 05:08:34;;;;;;;73.75;44.88;;;4.20;68.30;;;;;;6094035;23;20026;-83
2022/03/22 05:11:00;;;;;;;65.20;41.85;;;4.20;84.60;;;;;;6068435;23;20021;-83
2022/03/22 05:13:25;;;;;;;71.97;44.38;;;4.20;84.90;;;;;;6094047;23;20595;-83
2022/03/22 05:15:52;;;;;;;77.30;46.60;;;4.20;78.20;;;;;;6043972;23;20493;-83
2022/03/22 05:18:19;;;;;;;74.93;44.60;;;4.20;83.60;;;;;;6094683;23;20054;-82
2022/03/22 05:20:45;;;;;;;74.28;45.22;;;4.30;91.30;;;;;;6068988;23;20089;-83
2022/03/22 05:23:11;;;;;;;73.22;45.80;;;4.30;93.70;;;;;;6095570;23;20057;-83
2022/03/22 05:25:36;;;;;;;66.03;42.92;;;4.40;95.10;;;;;;6097220;23;20022;-83
2022/03/22 05:28:03;;;;;;;65.50;42.80;;;4.30;93.20;;;;;;6084607;23;20022;-83
2022/03/22 05:30:30;;;;;;;74.07;44.03;;;4.30;90.60;;;;;;6112031;23;20022;-84
2022/03/22 05:32:56;;;;;;;70.53;41.35;;;4.40;89.80;;;;;;6105159;23;20018;-85
2022/03/22 05:35:23;;;;;;;68.40;42.28;;;4.30;86.20;;;;;;6093073;23;20192;-84
2022/03/22 05:37:52;;;;;;;62.30;40.50;;;4.30;87.30;;;;;;6094024;23;20578;-84
2022/03/22 05:40:18;;;;;;;66.78;41.92;;;4.30;82.90;;;;;;6092203;23;20044;-84
2022/03/22 05:42:44;;;;;;;70.72;43.45;;;4.30;80.00;;;;;;6093786;23;20026;-84
2022/03/22 05:45:11;;;;;;;69.80;42.28;;;4.30;78.40;;;;;;6093265;23;20330;-84
2022/03/22 05:47:38;;;;;;;67.35;43.10;;;4.30;76.30;;;;;;6092050;23;20050;-83
2022/03/22 05:50:05;;;;;;;64.65;42.40;;;4.20;74.20;;;;;;6068221;23;20422;-84
2022/03/22 05:52:32;;;;;;;65.60;41.13;;;4.20;72.70;;;;;;6093405;23;20121;-84
2022/03/22 05:54:58;;;;;;;66.82;43.72;;;;;;;;;;6068825;23;20029;-84
2022/03/22 05:57:24;;;;;;;65.53;41.28;;;4.30;79.80;;;;;;6067346;23;20019;-83
2022/03/22 05:59:50;;;;;;;68.45;44.00;;;4.30;86.10;;;;;;6094408;23;20527;-84
2022/03/22 06:02:16;;;;;;;72.20;45.30;;;4.10;84.50;;;;;;6093418;23;20093;-86
2022/03/22 06:04:41;;;;;;;69.88;42.90;;;4.40;84.10;;;;;;6093312;23;20024;-87
2022/03/22 06:07:08;;;;;;;67.03;43.78;;;4.40;80.40;;;;;;6067023;23;20022;-85
2022/03/22 06:09:34;;;;;;;73.68;45.22;;;4.40;79.50;;;;;;6093463;23;20076;-86
2022/03/22 06:11:59;;;;;;;77.40;47.78;;;4.50;80.10;;;;;;6044819;23;20458;-85
2022/03/22 06:14:25;;;;;;;74.07;47.63;;;4.60;89.80;;;;;;6067376;23;20458;-85
2022/03/22 06:16:51;;;;;;;71.57;44.72;;;4.60;90.80;;;;;;6020742;23;20025;-86
2022/03/22 06:19:17;;;;;;;69.10;43.90;;;4.70;82.80;;;;;;6091349;23;20077;-83
2022/03/22 06:21:42;;;;;;;66.85;44.30;;;4.70;82.30;;;;;;6093518;23;20414;-82
2022/03/22 06:24:08;;;;;;;74.43;43.70;;;4.80;79.50;;;;;;6042879;23;20102;-84
2022/03/22 06:26:34;;;;;;;70.75;43.35;;;4.80;76.10;;;;;;6067304;23;20061;-85
2022/03/22 06:29:00;;;;;;;73.63;45.00;;;4.80;71.90;;;;;;6067043;23;20030;-85
2022/03/22 06:31:27;;;;;;;68.60;44.53;;;4.80;69.10;;;;;;6067676;23;20022;-86
2022/03/22 06:33:53;;;;;;;71.80;44.80;;;4.90;66.50;;;;;;6093953;23;20294;-86
2022/03/22 06:36:19;;;;;;;72.25;43.20;;;4.90;64.70;;;;;;6091961;23;20274;-86
2022/03/22 06:38:45;;;;;;;72.38;43.58;;;4.90;64.20;;;;;;6043965;23;20086;-85
2022/03/22 06:41:10;;;;;;;73.75;45.67;;;5.00;63.00;;;;;;6044425;23;20076;-83
2022/03/22 06:43:36;;;;;;;77.07;49.05;;;5.00;69.10;;;;;;6068361;23;20019;-84
2022/03/22 06:46:02;;;;;;;76.85;46.70;;;5.20;91.10;;;;;;6068899;23;20045;-84
2022/03/22 06:48:28;;;;;;;84.03;47.85;;;5.20;86.80;;;;;;6092726;23;20026;-83
2022/03/22 06:50:54;;;;;;;77.53;46.70;;;5.30;80.60;;;;;;6022713;23;20030;-85
2022/03/22 06:53:20;;;;;;;89.47;49.00;;;4.00;84.40;;;;;;6095825;23;20019;-83
2022/03/22 06:55:47;;;;;;;76.07;47.08;;;5.50;86.80;;;;;;6070651;23;20029;-84
2022/03/22 06:58:16;;;;;;;73.38;45.08;;;5.60;84.30;;;;;;6096172;23;20486;-85
2022/03/22 07:00:42;;;;;;;74.88;45.35;;;5.80;72.10;;;;;;6095954;23;20029;-85
2022/03/22 07:03:07;;;;;;;73.82;43.13;;;6.10;74.30;;;;;;6046347;23;20018;-84
2022/03/22 07:05:33;;;;;;;73.30;44.92;;;6.30;49.50;;;;;;6095314;23;20046;-82
2022/03/22 07:08:00;;;;;;;72.03;44.75;;;6.40;43.40;;;;;;6095989;23;20041;-84
2022/03/22 07:10:26;;;;;;;78.82;45.92;;;6.80;34.10;;;;;;6095585;23;20018;-84
2022/03/22 07:12:52;;;;;;;65.03;40.97;;;6.90;27.30;;;;;;6070684;23;20034;-84
2022/03/22 07:15:19;;;;;;;65.57;40.58;;;7.10;13.50;;;;;;6095697;23;20023;-84
2022/03/22 07:17:45;;;;;;;66.03;39.67;;;7.30;9.10;;;;;;6095959;23;20110;-85
2022/03/22 07:20:12;;;;;;;60.53;39.20;;;7.40;9.00;;;;;;6095395;23;20049;-84
2022/03/22 07:22:38;;;;;;;70.50;37.85;;;7.60;5.70;;;;;;6095941;23;20050;-84
2022/03/22 07:25:04;;;;;;;61.80;38.72;;;7.70;3.50;;;;;;6091163;23;20207;-84
2022/03/22 07:27:30;;;;;;;60.97;37.17;;;7.80;1.00;;;;;;6068204;23;20018;-83
2022/03/22 07:29:57;;;;;;;62.92;37.90;;;7.90;1.00;;;;;;6095669;23;20072;-83
2022/03/22 07:32:25;;;;;;;61.65;36.53;;;8.00;1.00;;;;;;6094902;23;20019;-84
2022/03/22 07:34:52;;;;;;;58.15;36.78;;;8.30;1.00;;;;;;6069996;23;20120;-84
2022/03/22 07:37:17;;;;;;;59.25;35.25;;;8.10;1.00;;;;;;6069412;23;20041;-84
2022/03/22 07:39:43;;;;;;;59.05;35.65;;;8.40;1.00;;;;;;6095550;23;20445;-84
2022/03/22 07:42:09;;;;;;;52.92;34.15;;;8.60;1.00;;;;;;6096088;23;20394;-84
2022/03/22 07:44:35;;;;;;;60.22;35.97;;;8.80;1.00;;;;;;6069463;23;20101;-84
2022/03/22 07:47:00;;;;;;;56.55;35.47;;;8.90;1.00;;;;;;6045392;23;20023;-84
2022/03/22 07:54:55;;;;;;;56.03;32.78;;;11.10;1.00;;;;;;6096000;23;20048;-84
2022/03/22 07:57:21;;;;;;;47.58;28.55;;;12.10;1.00;;;;;;6096039;23;20089;-84
2022/03/22 07:59:46;;;;;;;49.88;28.52;;;13.00;1.00;;;;;;6070346;23;20026;-84
2022/03/22 08:02:12;;;;;;;49.47;30.00;;;13.60;1.00;;;;;;6096372;23;20346;-87
2022/03/22 08:04:38;;;;;;;45.05;27.10;;;14.40;1.00;;;;;;6095733;23;20018;-84
2022/03/22 08:07:07;;;;;;;45.78;26.05;;;14.50;1.00;;;;;;6096548;23;20441;-84
2022/03/22 08:09:33;;;;;;;49.05;26.45;;;14.80;1.00;;;;;;6095860;23;20038;-85
2022/03/22 08:11:59;;;;;;;43.28;27.08;;;15.00;1.00;;;;;;6095764;23;20019;-84
2022/03/22 08:14:24;;;;;;;42.05;25.85;;;15.30;1.00;;;;;;6095019;23;20022;-83
2022/03/22 08:16:50;;;;;;;44.35;25.67;;;16.00;1.00;;;;;;6096027;23;20018;-82
2022/03/22 08:19:19;;;;;;;45.53;25.42;;;16.30;1.00;;;;;;6094540;23;20025;-87
2022/03/22 08:21:46;;;;;;;48.08;25.30;;;16.20;1.00;;;;;;6095681;23;20097;-85
2022/03/22 08:24:13;;;;;;;42.58;23.40;;;16.50;1.00;;;;;;6095171;23;20073;-86
2022/03/22 08:26:39;;;;;;;43.25;25.60;;;16.60;1.00;;;;;;6095002;23;20080;-84
2022/03/22 08:29:06;;;;;;;39.78;23.17;;;17.00;1.00;;;;;;6095538;23;20042;-83
2022/03/22 08:31:32;;;;;;;36.45;23.88;;;17.40;1.00;;;;;;6095255;23;20018;-82
2022/03/22 08:33:58;;;;;;;46.30;24.92;;;17.60;1.00;;;;;;6094863;23;20097;-86
2022/03/22 08:36:24;;;;;;;43.92;25.60;;;17.70;1.00;;;;;;6094190;23;20023;-87
2022/03/22 08:38:49;;;;;;;38.20;23.25;;;18.30;1.00;;;;;;6044574;23;20014;-84
2022/03/22 08:41:16;;;;;;;41.63;23.10;;;18.20;1.00;;;;;;6094860;23;20394;-86
2022/03/22 08:43:42;;;;;;;42.42;23.98;;;18.60;1.00;;;;;;6094666;23;20022;-83
2022/03/22 08:46:08;;;;;;;36.90;21.90;;;18.80;1.00;;;;;;6095519;23;20050;-84
2022/03/22 08:48:37;;;;;;;33.92;22.10;;;18.50;1.00;;;;;;6094382;23;20056;-85
2022/03/22 08:51:04;;;;;;;36.08;22.85;;;18.30;1.00;;;;;;6094804;23;20014;-84
2022/03/22 08:53:31;;;;;;;34.70;21.83;;;18.80;1.00;;;;;;6094382;23;20022;-85
2022/03/22 08:55:57;;;;;;;39.25;21.15;;;18.60;1.00;;;;;;6045873;23;20101;-85
2022/03/22 08:58:22;;;;;;;35.78;21.65;;;19.20;1.00;;;;;;6094789;23;20053;-86
2022/03/22 09:00:48;;;;;;;38.05;21.30;;;18.90;1.00;;;;;;6095462;23;20038;-84
2022/03/22 09:03:15;;;;;;;37.67;21.48;;;19.10;1.00;;;;;;6094704;23;20026;-84
2022/03/22 09:08:25;;;;;;;38.83;21.63;;;19.80;1.00;;;;;;6095131;23;20022;-85
2022/03/22 09:10:51;;;;;;;35.83;21.23;;;20.40;1.00;;;;;;6069667;23;20445;-84
2022/03/22 09:13:18;;;;;;;39.78;21.15;;;20.90;1.00;;;;;;6093681;23;20018;-84
2022/03/22 09:15:45;;;;;;;36.38;21.02;;;21.70;1.00;;;;;;6095025;23;20023;-84
2022/03/22 09:18:14;;;;;;;34.83;22.55;;;21.50;99.90;;;;;;6069862;23;20477;-85
2022/03/22 09:20:40;;;;;;;43.38;21.73;;;21.20;99.90;;;;;;6068667;23;20032;-84
2022/03/22 09:23:07;;;;;;;36.47;21.88;;;20.60;99.90;;;;;;6069885;23;20054;-83
2022/03/22 09:25:33;;;;;;;40.78;23.02;;;20.70;99.90;;;;;;6094822;23;20045;-84
2022/03/22 09:28:00;;;;;;;39.17;22.00;;;20.90;99.90;;;;;;6095538;23;20434;-84
2022/03/22 09:30:26;;;;;;;36.45;21.65;;;21.00;99.90;;;;;;6094743;23;20010;-85
2022/03/22 09:32:52;;;;;;;35.72;21.90;;;21.40;99.90;;;;;;6094755;23;20018;-85
2022/03/22 09:35:19;;;;;;;35.53;22.63;;;21.70;99.90;;;;;;6093157;23;20533;-85
2022/03/22 09:37:47;;;;;;;36.92;23.15;;;22.20;99.90;;;;;;6093707;23;20026;-85
2022/03/22 09:40:16;;;;;;;36.45;21.30;;;22.40;99.90;;;;;;6094488;23;20014;-85
2022/03/22 09:42:42;;;;;;;40.10;21.42;;;22.90;99.90;;;;;;6093901;23;20030;-85
2022/03/22 09:45:10;;;;;;;34.45;22.23;;;22.20;99.90;;;;;;6093377;23;20022;-86
2022/03/22 09:47:37;;;;;;;37.83;21.98;;;22.90;99.90;;;;;;6093156;23;20062;-85
2022/03/22 09:50:04;;;;;;;37.78;20.65;;;22.40;99.90;;;;;;6067985;23;20093;-85
2022/03/22 09:52:31;;;;;;;33.28;21.38;;;22.50;99.90;;;;;;6090498;23;20081;-86
2022/03/22 09:54:57;;;;;;;32.43;20.87;;;23.40;99.90;;;;;;6067101;23;20026;-86
2022/03/22 09:57:22;;;;;;;35.47;20.80;;;24.10;99.90;;;;;;6068162;23;20301;-86
2022/03/22 09:59:48;;;;;;;33.50;20.10;;;23.80;99.90;;;;;;6093991;23;20046;-86
2022/03/22 10:02:14;;;;;;;33.78;20.45;;;24.00;99.90;;;;;;6067559;23;20406;-88
2022/03/22 10:04:42;;;;;;;38.05;21.10;;;24.50;99.90;;;;;;6043748;23;20045;-88
2022/03/22 10:07:17;;;;;;;34.40;20.95;;;25.30;99.90;;;;;;6094760;23;20121;-88
2022/03/22 10:09:54;;;;;;;34.35;20.10;;;25.90;99.90;;;;;;6093686;23;20030;-88
2022/03/22 10:12:34;;;;;;;32.60;20.98;;;25.30;99.90;;;;;;6068353;23;20030;-87
2022/03/22 10:15:11;;;;;;;33.28;19.77;;;25.00;99.90;;;;;;6094801;23;20097;-87
2022/03/22 10:17:38;;;;;;;34.28;21.00;;;25.50;99.90;;;;;;6093646;23;20019;-87
2022/03/22 10:20:08;;;;;;;38.97;20.43;;;25.10;99.90;;;;;;6068184;23;20022;-87
2022/03/22 10:22:35;;;;;;;31.95;20.48;;;25.60;99.90;;;;;;6094246;23;20281;-87
2022/03/22 10:25:05;;;;;;;35.75;20.20;;;25.30;99.90;;;;;;6094808;23;20110;-86
2022/03/22 10:27:36;;;;;;;34.67;21.13;;;25.50;99.90;;;;;;6068548;23;20019;-87
2022/03/22 10:30:06;;;;;;;30.50;19.75;;;25.70;99.90;;;;;;6095139;23;20026;-85
2022/03/22 10:32:51;;;;;;;36.72;20.00;;;26.40;99.90;;;;;;6093296;23;20015;-86
2022/03/22 10:35:21;;;;;;;33.63;20.58;;;26.90;99.90;;;;;;6093985;23;20018;-86
2022/03/22 10:37:51;;;;;;;33.05;20.27;;;26.80;99.90;;;;;;6092922;23;20037;-87
2022/03/22 10:40:35;;;;;;;32.15;18.85;;;27.10;99.90;;;;;;6068079;23;20046;-86
2022/03/22 10:43:06;;;;;;;33.35;19.60;;;27.50;99.90;;;;;;6093849;23;20022;-86
2022/03/22 10:45:50;;;;;;;35.83;19.35;;;27.20;99.90;;;;;;6093851;23;20024;-87
2022/03/22 10:48:22;;;;;;;33.45;20.02;;;27.00;99.90;;;;;;6094192;23;20077;-86
2022/03/22 10:50:49;;;;;;;32.88;20.13;;;26.70;99.90;;;;;;6093951;23;20318;-88
2022/03/22 10:53:17;;;;;;;29.13;19.27;;;26.70;99.90;;;;;;6068793;23;20058;-88
2022/03/22 10:55:44;;;;;;;34.08;19.85;;;26.80;99.90;;;;;;6068190;23;20465;-87
2022/03/22 10:58:13;;;;;;;33.25;19.75;;;26.60;99.90;;;;;;6094695;23;20023;-88
2022/03/22 11:00:42;;;;;;;36.75;21.67;;;26.90;99.90;;;;;;6093667;23;20015;-88
2022/03/22 11:03:09;;;;;;;34.35;20.65;;;27.20;99.90;;;;;;6094013;23;20023;-87
2022/03/22 11:05:36;;;;;;;36.13;19.42;;;27.10;99.90;;;;;;6093435;23;20151;-88
2022/03/22 11:08:02;;;;;;;32.58;19.42;;;27.90;99.90;;;;;;6068914;23;20440;-87
2022/03/22 11:10:29;;;;;;;33.20;18.45;;;27.80;99.90;;;;;;6045370;23;20093;-88
2022/03/22 11:12:59;;;;;;;34.70;20.48;;;27.30;99.90;;;;;;6093591;23;20022;-88
2022/03/22 11:15:28;;;;;;;34.05;20.55;;;27.70;99.90;;;;;;6094240;23;20022;-87
2022/03/22 11:17:55;;;;;;;32.45;20.60;;;27.10;99.90;;;;;;6093147;23;20466;-88
2022/03/22 11:20:23;;;;;;;32.55;20.85;;;27.20;99.90;;;;;;6093801;23;20069;-87
2022/03/22 11:22:54;;;;;;;31.67;20.60;;;27.80;99.90;;;;;;6093597;23;20093;-87
2022/03/22 11:25:35;;;;;;;31.90;20.27;;;27.80;99.90;;;;;;6094260;23;20022;-88
2022/03/22 11:28:13;;;;;;;32.92;21.63;;;28.40;99.90;;;;;;6068718;23;20045;-87
2022/03/22 11:30:39;;;;;;;;;;;27.40;99.90;;;;;;6094590;23;20074;-87
2022/03/22 11:35:57;;;;;;;34.72;22.00;;;27.70;99.90;;;;;;6094985;23;20102;-88
2022/03/22 11:38:41;;;;;;;36.50;21.02;;;26.70;99.90;;;;;;6095909;23;20014;-87
2022/03/22 11:44:35;;;;;;;40.55;20.50;;;27.00;99.90;;;;;;6095566;23;20034;-88
2022/03/22 11:47:11;;;;;;;34.90;20.45;;;26.70;99.90;;;;;;6095972;23;20033;-87
2022/03/22 11:49:59;;;;;;;39.45;21.75;;;27.20;99.90;;;;;;6093997;23;20023;-87
2022/03/22 11:52:46;;;;;;;34.25;20.10;;;27.10;99.90;;;;;;6095110;23;20181;-87
2022/03/22 11:55:18;;;;;;;36.58;20.15;;;27.80;99.90;;;;;;6094509;23;20093;-87
2022/03/22 11:57:56;;;;;;;32.10;19.20;;;27.50;99.90;;;;;;6094373;23;20532;-87
2022/03/22 12:00:58;;;;;;;33.85;20.65;;;28.50;99.90;;;;;;6095931;23;20019;-88
2022/03/22 12:03:31;;;;;;;32.33;20.08;;;27.50;99.90;;;;;;6045634;23;20033;-87
2022/03/22 12:06:08;;;;;;;36.47;20.27;;;27.20;99.90;;;;;;6093603;23;20026;-87
2022/03/22 12:08:35;;;;;;;32.38;19.60;;;26.80;99.90;;;;;;6095304;23;20259;-87
2022/03/22 12:11:01;;;;;;;34.03;19.75;;;26.30;99.90;;;;;;6068348;23;20379;-87
2022/03/22 12:13:27;;;;;;;32.55;20.38;;;25.30;99.90;;;;;;6044911;23;20160;-87
2022/03/22 12:15:59;;;;;;;37.03;21.42;;;24.30;99.90;;;;;;6094214;23;20089;-87
2022/03/22 12:18:32;;;;;;;35.20;20.50;;;23.40;99.90;;;;;;6094192;23;20038;-87
2022/03/22 12:20:58;;;;;;;42.70;21.15;;;22.90;99.90;;;;;;6068457;23;20072;-87
2022/03/22 12:23:25;;;;;;;34.85;19.65;;;22.40;99.90;;;;;;6069052;23;20058;-87
2022/03/22 12:25:54;;;;;;;36.50;20.40;;;22.00;99.90;;;;;;6094802;23;20018;-86
2022/03/22 12:28:20;;;;;;;35.55;20.20;;;21.80;99.90;;;;;;6046175;23;20023;-86
2022/03/22 12:30:47;;;;;;;35.42;20.45;;;21.50;99.90;;;;;;6045408;23;20027;-87
2022/03/22 12:33:15;;;;;;;38.13;21.05;;;21.50;99.90;;;;;;6045231;23;20030;-87
2022/03/22 12:35:43;;;;;;;33.45;19.98;;;21.20;99.90;;;;;;6094638;23;20018;-88
2022/03/22 12:38:09;;;;;;;37.17;20.33;;;21.20;99.90;;;;;;6069844;23;20045;-87
2022/03/22 12:40:36;;;;;;;32.92;19.17;;;21.10;99.90;;;;;;6068509;23;20018;-87
2022/03/22 12:43:03;;;;;;;35.63;20.48;;;21.00;99.90;;;;;;6094532;23;20370;-87
2022/03/22 12:45:33;;;;;;;41.75;21.02;;;20.90;99.90;;;;;;6096705;23;20097;-87
2022/03/22 12:48:00;;;;;;;33.00;20.27;;;20.70;99.90;;;;;;6096236;23;20025;-87
2022/03/22 12:50:29;;;;;;;38.97;21.58;;;20.50;99.90;;;;;;6096162;23;20038;-87
2022/03/22 12:52:56;;;;;;;37.83;22.45;;;20.00;99.90;;;;;;6096198;23;20347;-87
2022/03/22 12:55:22;;;;;;;39.35;20.58;;;20.30;99.90;;;;;;6070213;23;20014;-88
2022/03/22 12:57:51;;;;;;;38.30;20.80;;;20.30;99.90;;;;;;6069508;23;20015;-88
2022/03/22 13:00:29;;;;;;;37.00;20.35;;;20.30;99.90;;;;;;6069124;23;20011;-87
2022/03/22 13:02:56;;;;;;;38.08;19.00;;;20.30;99.90;;;;;;6068639;23;20025;-87
2022/03/22 13:05:28;;;;;;;36.97;20.23;;;20.20;99.90;;;;;;6094677;23;20018;-87
2022/03/22 13:07:55;;;;;;;33.28;19.75;;;20.10;99.90;;;;;;6045435;23;20022;-85
2022/03/22 13:13:19;;;;;;;36.78;20.83;;;20.10;99.90;;;;;;6094915;23;20026;-87
2022/03/22 13:15:52;;;;;;;33.90;19.30;;;20.10;99.90;;;;;;6068868;23;20018;-87
2022/03/22 13:18:20;;;;;;;40.70;20.15;;;20.10;99.90;;;;;;6094656;23;20025;-86
2022/03/22 13:20:46;;;;;;;38.35;20.98;;;20.00;99.90;;;;;;6069216;23;20018;-86
2022/03/22 13:23:16;;;;;;;34.03;20.25;;;19.90;99.90;;;;;;6094839;23;20010;-87